createdAt,value
2023-03-11T00:00:22.754Z,4.53
2023-03-11T00:02:52.050Z,4.93
2023-03-11T00:05:24.723Z,4.60
2023-03-11T00:07:53.102Z,4.83
2023-03-11T00:10:24.217Z,5.07
2023-03-11T00:12:52.127Z,4.50
2023-03-11T00:15:20.803Z,4.60
2023-03-11T00:17:49.152Z,4.20
2023-03-11T00:20:22.101Z,3.40
2023-03-11T00:22:52.091Z,3.47
2023-03-11T00:25:21.158Z,3.13
2023-03-11T00:27:49.053Z,2.47
2023-03-11T00:30:18.550Z,2.60
2023-03-11T00:32:48.425Z,2.30
2023-03-11T00:35:19.904Z,2.40
2023-03-11T00:37:49.325Z,2.63
2023-03-11T00:40:22.579Z,3.27
2023-03-11T00:42:51.119Z,3.03
2023-03-11T00:45:19.266Z,2.70
2023-03-11T00:47:47.858Z,2.97
2023-03-11T00:50:21.562Z,2.80
2023-03-11T00:52:53.521Z,2.60
2023-03-11T00:55:27.270Z,3.57
2023-03-11T00:57:58.275Z,3.90
2023-03-11T01:00:34.014Z,3.50
2023-03-11T01:03:03.802Z,3.13
2023-03-11T01:05:39.152Z,4.00
2023-03-11T01:08:07.731Z,3.67
2023-03-11T01:10:37.996Z,3.70
2023-03-11T01:13:06.725Z,3.60
2023-03-11T01:15:37.612Z,3.40
2023-03-11T01:18:08.162Z,3.13
2023-03-11T01:20:37.717Z,3.77
2023-03-11T01:23:07.714Z,3.40
2023-03-11T01:25:37.622Z,3.60
2023-03-11T01:28:08.591Z,3.03
2023-03-11T01:30:37.769Z,3.90
2023-03-11T01:33:07.327Z,3.00
2023-03-11T01:35:35.486Z,3.30
2023-03-11T01:38:03.480Z,3.40
2023-03-11T01:40:33.284Z,3.77
2023-03-11T01:43:08.582Z,3.40
2023-03-11T01:46:04.279Z,3.17
2023-03-11T01:48:36.354Z,3.07
2023-03-11T01:51:04.542Z,3.30
2023-03-11T01:53:33.635Z,3.10
2023-03-11T01:56:03.360Z,3.20
2023-03-11T01:58:36.815Z,3.23
2023-03-11T02:01:05.721Z,3.17
2023-03-11T02:03:37.535Z,3.13
2023-03-11T02:06:09.867Z,2.67
2023-03-11T02:08:43.381Z,3.17
2023-03-11T02:11:17.928Z,3.27
2023-03-11T02:13:49.160Z,3.23
2023-03-11T02:16:18.082Z,3.53
2023-03-11T02:18:47.138Z,3.43
2023-03-11T02:21:24.464Z,3.33
2023-03-11T02:24:02.430Z,3.50
2023-03-11T02:26:38.772Z,3.50
2023-03-11T02:29:12.683Z,4.07
2023-03-11T02:31:43.365Z,4.27
2023-03-11T02:34:20.051Z,4.23
2023-03-11T02:36:50.301Z,3.90
2023-03-11T02:39:18.278Z,4.17
2023-03-11T02:41:47.898Z,4.37
2023-03-11T02:44:23.758Z,4.23
2023-03-11T02:46:52.352Z,3.63
2023-03-11T02:49:21.835Z,4.00
2023-03-11T02:51:50.053Z,4.20
2023-03-11T02:54:18.315Z,4.03
2023-03-11T02:56:46.978Z,3.50
2023-03-11T02:59:15.002Z,4.17
2023-03-11T03:01:44.395Z,3.60
2023-03-11T03:04:12.473Z,4.00
2023-03-11T03:06:40.492Z,4.37
2023-03-11T03:09:08.592Z,3.77
2023-03-11T03:11:36.320Z,4.27
2023-03-11T03:14:04.145Z,4.97
2023-03-11T03:16:31.924Z,4.77
2023-03-11T03:19:01.115Z,5.30
2023-03-11T03:21:28.924Z,5.23
2023-03-11T03:23:57.208Z,6.47
2023-03-11T03:26:24.859Z,6.27
2023-03-11T03:28:52.729Z,6.20
2023-03-11T03:31:20.755Z,6.53
2023-03-11T03:33:48.532Z,5.80
2023-03-11T03:36:18.036Z,7.10
2023-03-11T03:38:55.258Z,9.37
2023-03-11T03:41:23.528Z,9.00
2023-03-11T03:43:51.345Z,9.40
2023-03-11T03:46:19.181Z,9.47
2023-03-11T03:48:49.635Z,8.87
2023-03-11T03:51:19.211Z,10.20
2023-03-11T03:54:07.356Z,9.30
2023-03-11T03:56:36.315Z,9.60
2023-03-11T03:59:04.415Z,10.03
2023-03-11T04:01:41.004Z,9.80
2023-03-11T04:04:09.358Z,8.83
2023-03-11T04:06:38.767Z,8.43
2023-03-11T04:09:08.286Z,8.47
2023-03-11T04:11:38.815Z,8.83
2023-03-11T04:14:07.575Z,9.20
2023-03-11T04:16:41.054Z,9.10
2023-03-11T04:19:13.370Z,9.77
2023-03-11T04:21:42.575Z,9.87
2023-03-11T04:24:10.491Z,10.13
2023-03-11T04:26:39.910Z,8.97
2023-03-11T04:29:13.698Z,9.80
2023-03-11T04:31:46.067Z,9.73
2023-03-11T04:34:14.038Z,10.10
2023-03-11T04:36:43.161Z,9.70
2023-03-11T04:39:12.810Z,10.37
2023-03-11T04:41:43.696Z,10.60
2023-03-11T04:44:15.021Z,11.33
2023-03-11T04:46:42.830Z,11.33
2023-03-11T04:49:11.344Z,11.57
2023-03-11T04:51:39.209Z,11.20
2023-03-11T04:54:09.483Z,11.83
2023-03-11T04:56:37.207Z,11.10
2023-03-11T04:59:06.079Z,12.03
2023-03-11T05:01:35.821Z,11.70
2023-03-11T05:04:05.776Z,11.17
2023-03-11T05:06:33.816Z,10.60
2023-03-11T05:09:04.703Z,10.83
2023-03-11T05:11:36.817Z,11.80
2023-03-11T05:14:04.768Z,9.20
2023-03-11T05:16:32.488Z,10.73
2023-03-11T05:19:00.277Z,11.37
2023-03-11T05:21:28.299Z,10.77
2023-03-11T05:23:56.325Z,9.87
2023-03-11T05:26:24.043Z,10.17
2023-03-11T05:28:53.080Z,9.97
2023-03-11T05:31:20.944Z,9.13
2023-03-11T05:33:48.736Z,10.03
2023-03-11T05:36:16.575Z,9.37
2023-03-11T05:38:46.319Z,8.43
2023-03-11T05:41:15.255Z,8.47
2023-03-11T05:43:44.403Z,12.20
2023-03-11T05:46:13.866Z,9.40
2023-03-11T05:48:41.665Z,8.77
2023-03-11T05:51:10.489Z,8.53
2023-03-11T05:53:42.872Z,9.20
2023-03-11T05:56:10.658Z,9.17
2023-03-11T05:58:38.497Z,9.10
2023-03-11T06:01:09.596Z,9.27
2023-03-11T06:03:39.140Z,8.80
2023-03-11T06:06:08.638Z,10.17
2023-03-11T06:08:37.240Z,10.90
2023-03-11T06:11:07.873Z,10.93
2023-03-11T06:13:38.558Z,12.80
2023-03-11T06:16:07.319Z,11.07
2023-03-11T06:18:35.414Z,10.47
2023-03-11T06:21:05.456Z,10.97
2023-03-11T06:23:34.444Z,11.60
2023-03-11T06:26:06.693Z,11.20
2023-03-11T06:28:40.373Z,11.50
2023-03-11T06:31:09.559Z,11.33
2023-03-11T06:33:38.063Z,11.57
2023-03-11T06:36:09.807Z,9.83
2023-03-11T06:38:37.578Z,10.20
2023-03-11T06:41:07.422Z,10.43
2023-03-11T06:43:37.051Z,9.43
2023-03-11T06:46:10.228Z,9.70
2023-03-11T06:48:38.898Z,9.73
2023-03-11T06:51:08.355Z,9.80
2023-03-11T06:53:36.086Z,9.27
2023-03-11T06:56:06.110Z,9.20
2023-03-11T06:58:40.266Z,9.37
2023-03-11T07:01:13.475Z,11.53
2023-03-11T07:03:41.782Z,10.07
2023-03-11T07:06:14.748Z,9.30
2023-03-11T07:08:42.987Z,9.37
2023-03-11T07:11:13.416Z,9.87
2023-03-11T07:13:42.268Z,9.53
2023-03-11T07:16:12.976Z,10.40
2023-03-11T07:18:40.974Z,9.47
2023-03-11T07:21:09.681Z,9.53
2023-03-11T07:23:38.741Z,9.57
2023-03-11T07:26:12.737Z,9.47
2023-03-11T07:28:41.506Z,9.47
2023-03-11T07:31:10.681Z,8.63
2023-03-11T07:33:39.341Z,8.70
2023-03-11T07:36:09.239Z,8.17
2023-03-11T07:38:38.853Z,9.00
2023-03-11T07:41:07.406Z,8.47
2023-03-11T07:43:38.980Z,9.30
2023-03-11T07:46:09.451Z,9.90
2023-03-11T07:48:38.405Z,10.97
2023-03-11T07:51:08.373Z,8.83
2023-03-11T07:53:36.879Z,7.00
2023-03-11T07:56:07.601Z,6.10
2023-03-11T07:58:38.968Z,6.43
2023-03-11T08:01:08.737Z,6.97
2023-03-11T08:03:40.014Z,6.47
2023-03-11T08:06:13.832Z,5.30
2023-03-11T08:08:42.133Z,6.00
2023-03-11T08:11:15.489Z,5.93
2023-03-11T08:13:46.170Z,6.60
2023-03-11T08:16:16.265Z,6.67
2023-03-11T08:18:44.764Z,7.50
2023-03-11T08:21:16.519Z,6.33
2023-03-11T08:23:47.156Z,7.07
2023-03-11T08:26:19.568Z,7.40
2023-03-11T08:28:47.816Z,7.93
2023-03-11T08:31:17.024Z,7.93
2023-03-11T08:33:47.292Z,7.43
2023-03-11T08:36:16.207Z,8.20
2023-03-11T08:38:44.174Z,7.93
2023-03-11T08:41:16.252Z,8.50
2023-03-11T08:43:45.991Z,6.50
2023-03-11T08:46:20.766Z,7.87
2023-03-11T08:48:48.961Z,7.33
2023-03-11T08:51:19.187Z,7.53
2023-03-11T08:53:48.437Z,7.63
2023-03-11T08:56:16.364Z,6.73
2023-03-11T08:58:46.164Z,7.30
2023-03-11T09:01:15.562Z,7.60
2023-03-11T09:03:43.581Z,8.43
2023-03-11T09:06:15.556Z,8.40
2023-03-11T09:08:44.338Z,6.40
2023-03-11T09:11:13.791Z,6.97
2023-03-11T09:13:43.067Z,7.13
2023-03-11T09:16:15.203Z,6.90
2023-03-11T09:18:43.445Z,8.33
2023-03-11T09:21:14.097Z,6.47
2023-03-11T09:23:44.348Z,7.80
2023-03-11T09:26:12.643Z,7.37
2023-03-11T09:28:40.806Z,6.30
2023-03-11T09:31:09.099Z,6.37
2023-03-11T09:33:40.335Z,6.67
2023-03-11T09:36:09.882Z,7.20
2023-03-11T09:38:37.904Z,7.13
2023-03-11T09:41:11.902Z,6.80
2023-03-11T09:43:55.230Z,7.20
2023-03-11T09:46:38.404Z,6.70
2023-03-11T09:49:16.996Z,6.03
2023-03-11T09:51:50.447Z,5.70
2023-03-11T09:54:19.901Z,6.23
2023-03-11T09:56:48.300Z,6.50
2023-03-11T09:59:20.680Z,6.47
2023-03-11T10:01:51.150Z,6.10
2023-03-11T10:04:27.267Z,5.40
2023-03-11T10:06:57.205Z,5.33
2023-03-11T10:09:34.829Z,5.47
2023-03-11T10:12:26.950Z,5.10
2023-03-11T10:15:09.416Z,4.90
2023-03-11T10:17:47.342Z,5.60
2023-03-11T10:20:23.351Z,5.07
2023-03-11T10:23:02.657Z,8.67
2023-03-11T10:25:38.764Z,6.10
2023-03-11T10:28:14.977Z,4.90
2023-03-11T10:30:46.837Z,5.33
2023-03-11T10:33:22.584Z,6.83
2023-03-11T10:35:56.800Z,5.70
2023-03-11T10:38:29.134Z,8.17
2023-03-11T10:41:00.881Z,4.97
2023-03-11T10:43:33.104Z,4.57
2023-03-11T10:46:00.946Z,4.83
2023-03-11T10:48:28.967Z,5.33
2023-03-11T10:51:05.816Z,5.43
2023-03-11T10:53:37.519Z,5.40
2023-03-11T10:56:30.045Z,5.23
2023-03-11T10:59:02.936Z,5.50
2023-03-11T11:01:31.448Z,5.77
2023-03-11T11:04:23.948Z,5.17
2023-03-11T11:06:54.085Z,4.63
2023-03-11T11:09:26.896Z,5.10
2023-03-11T11:12:04.335Z,5.37
2023-03-11T11:14:50.056Z,4.57
2023-03-11T11:17:20.809Z,5.23
2023-03-11T11:19:50.508Z,5.20
2023-03-11T11:22:27.605Z,5.27
2023-03-11T11:24:56.986Z,7.03
2023-03-11T11:27:29.915Z,5.07
2023-03-11T11:30:16.153Z,6.00
2023-03-11T11:32:44.273Z,4.77
2023-03-11T11:35:17.057Z,4.50
2023-03-11T11:37:49.182Z,4.87
2023-03-11T11:40:26.881Z,5.70
2023-03-11T11:42:58.031Z,4.60
2023-03-11T11:45:32.927Z,4.90
2023-03-11T11:48:08.193Z,5.43
2023-03-11T11:50:38.146Z,3.83
2023-03-11T11:53:18.371Z,5.03
2023-03-11T11:55:50.106Z,4.40
2023-03-11T11:58:18.160Z,4.17
2023-03-11T12:00:57.535Z,4.20
2023-03-11T12:03:53.365Z,5.27
2023-03-11T12:06:28.393Z,4.90
2023-03-11T12:09:08.837Z,3.70
2023-03-11T12:11:47.471Z,4.90
2023-03-11T12:14:23.952Z,3.73
2023-03-11T12:16:57.048Z,3.30
2023-03-11T12:19:36.232Z,3.20
2023-03-11T12:22:35.484Z,3.63
2023-03-11T12:25:26.770Z,2.77
2023-03-11T12:28:01.148Z,3.30
2023-03-11T12:30:32.530Z,2.97
2023-03-11T12:33:05.346Z,4.40
2023-03-11T12:35:35.031Z,3.07
2023-03-11T12:38:17.420Z,2.93
2023-03-11T12:41:00.445Z,3.10
2023-03-11T12:43:48.815Z,3.40
2023-03-11T12:46:18.996Z,3.77
2023-03-11T12:48:52.706Z,4.10
2023-03-11T12:51:40.408Z,3.60
2023-03-11T12:54:30.873Z,2.60
2023-03-11T12:57:02.896Z,3.70
2023-03-11T12:59:56.559Z,2.77
2023-03-11T13:02:47.610Z,2.67
2023-03-11T13:05:24.506Z,3.23
2023-03-11T13:07:58.783Z,2.50
2023-03-11T13:10:39.548Z,4.03
2023-03-11T13:13:39.400Z,2.90
2023-03-11T13:16:39.865Z,2.53
2023-03-11T13:19:37.625Z,2.53
2023-03-11T13:22:26.979Z,3.17
2023-03-11T13:24:55.442Z,2.23
2023-03-11T13:27:43.603Z,2.43
2023-03-11T13:30:20.975Z,3.40
2023-03-11T13:33:07.642Z,3.97
2023-03-11T13:35:56.207Z,2.67
2023-03-11T13:38:43.981Z,2.40
2023-03-11T13:41:21.307Z,1.83
2023-03-11T13:43:51.812Z,3.53
2023-03-11T13:46:29.860Z,1.77
2023-03-11T13:49:05.354Z,2.80
2023-03-11T13:51:39.208Z,2.50
2023-03-11T13:54:22.869Z,2.10
2023-03-11T13:56:58.607Z,1.97
2023-03-11T13:59:31.685Z,2.80
2023-03-11T14:02:05.177Z,3.23
2023-03-11T14:04:37.307Z,2.63
2023-03-11T14:07:14.477Z,2.80
2023-03-11T14:09:42.427Z,2.10
2023-03-11T14:12:13.018Z,3.53
2023-03-11T14:14:49.353Z,3.97
2023-03-11T14:17:21.393Z,2.33
2023-03-11T14:20:14.989Z,4.20
2023-03-11T14:22:46.927Z,4.03
2023-03-11T14:25:20.179Z,2.53
2023-03-11T14:27:54.290Z,1.70
2023-03-11T14:30:25.229Z,2.77
2023-03-11T14:33:03.351Z,4.33
2023-03-11T14:35:32.986Z,2.37
2023-03-11T14:38:01.827Z,2.43
2023-03-11T14:40:32.140Z,2.20
2023-03-11T14:43:02.796Z,2.67
2023-03-11T14:45:32.779Z,1.83
2023-03-11T14:48:07.124Z,2.93
2023-03-11T14:50:38.371Z,4.20
2023-03-11T14:53:14.625Z,2.77
2023-03-11T14:55:51.068Z,2.20
2023-03-11T14:58:26.445Z,2.97
2023-03-11T15:00:57.727Z,1.93
2023-03-11T15:03:32.315Z,2.13
2023-03-11T15:06:04.421Z,3.70
2023-03-11T15:08:36.425Z,1.20
2023-03-11T15:11:19.319Z,2.27
2023-03-11T15:13:51.647Z,1.80
2023-03-11T15:16:31.820Z,2.50
2023-03-11T15:19:05.041Z,2.33
2023-03-11T15:21:36.111Z,1.93
2023-03-11T15:24:08.533Z,2.93
2023-03-11T15:26:38.281Z,2.83
2023-03-11T15:29:17.489Z,3.00
2023-03-11T15:31:47.960Z,2.83
2023-03-11T15:37:24.923Z,2.97
2023-03-11T15:39:53.314Z,2.60
2023-03-11T15:42:27.673Z,3.67
2023-03-11T15:45:14.270Z,2.67
2023-03-11T15:47:43.027Z,5.07
2023-03-11T15:50:25.208Z,3.67
2023-03-11T15:52:56.254Z,2.30
2023-03-11T15:55:24.967Z,4.17
2023-03-11T15:57:56.856Z,1.33
2023-03-11T16:00:25.318Z,1.73
2023-03-11T16:02:54.571Z,2.40
2023-03-11T16:05:25.299Z,3.50
2023-03-11T16:07:54.935Z,2.33
2023-03-11T16:10:25.557Z,2.97
2023-03-11T16:12:53.182Z,2.70
2023-03-11T16:15:25.051Z,3.20
2023-03-11T16:17:53.689Z,2.17
2023-03-11T16:20:23.063Z,3.80
2023-03-11T16:22:53.591Z,1.73
2023-03-11T16:25:24.915Z,1.90
2023-03-11T16:27:54.467Z,1.73
2023-03-11T16:30:23.521Z,5.43
2023-03-11T16:32:51.316Z,1.07
2023-03-11T16:35:19.411Z,2.30
2023-03-11T16:37:47.599Z,2.77
2023-03-11T16:40:17.888Z,1.87
2023-03-11T16:42:47.369Z,2.50
2023-03-11T16:45:17.386Z,2.03
2023-03-11T16:47:45.261Z,1.03
2023-03-11T16:50:13.323Z,1.17
2023-03-11T16:52:41.099Z,1.63
2023-03-11T16:55:09.974Z,1.30
2023-03-11T16:57:38.793Z,0.80
2023-03-11T17:00:11.043Z,0.87
2023-03-11T17:02:39.575Z,0.93
2023-03-11T17:05:09.261Z,2.07
2023-03-11T17:07:39.439Z,1.77
2023-03-11T17:10:08.609Z,2.70
2023-03-11T17:12:36.733Z,1.60
2023-03-11T17:15:05.408Z,1.70
2023-03-11T17:17:34.389Z,1.23
2023-03-11T17:20:02.053Z,2.60
2023-03-11T17:22:29.801Z,2.83
2023-03-11T17:24:57.425Z,1.67
2023-03-11T17:27:26.123Z,1.77
2023-03-11T17:29:56.022Z,2.23
2023-03-11T17:32:23.668Z,2.33
2023-03-11T17:34:52.741Z,1.87
2023-03-11T17:37:20.466Z,1.63
2023-03-11T17:39:48.367Z,2.60
2023-03-11T17:42:17.041Z,1.10
2023-03-11T17:44:51.508Z,1.33
2023-03-11T17:47:21.343Z,1.27
2023-03-11T17:49:50.294Z,1.60
2023-03-11T17:52:19.654Z,2.00
2023-03-11T17:54:47.503Z,1.80
2023-03-11T17:57:15.098Z,3.07
2023-03-11T17:59:43.004Z,1.73
2023-03-11T18:02:14.031Z,5.00
2023-03-11T18:04:45.933Z,3.37
2023-03-11T18:07:13.917Z,2.97
2023-03-11T18:09:42.863Z,4.10
2023-03-11T18:12:10.483Z,3.63
2023-03-11T18:14:38.132Z,2.90
2023-03-11T18:17:06.068Z,2.47
2023-03-11T18:19:33.681Z,3.03
2023-03-11T18:22:01.296Z,3.47
2023-03-11T18:24:29.184Z,4.33
2023-03-11T18:26:58.147Z,2.87
2023-03-11T18:29:25.807Z,3.10
2023-03-11T18:31:53.476Z,1.87
2023-03-11T18:34:22.207Z,3.33
2023-03-11T18:36:50.092Z,2.80
2023-03-11T18:39:17.733Z,3.40
2023-03-11T18:41:45.325Z,3.60
2023-03-11T18:44:14.294Z,3.50
2023-03-11T18:46:42.474Z,2.07
2023-03-11T18:49:12.991Z,4.63
2023-03-11T18:51:41.046Z,3.27
2023-03-11T18:54:09.398Z,3.77
2023-03-11T18:56:37.147Z,3.50
2023-03-11T18:59:04.992Z,3.60
2023-03-11T19:01:34.480Z,3.50
2023-03-11T19:04:02.200Z,2.97
2023-03-11T19:06:30.287Z,3.27
2023-03-11T19:08:58.681Z,3.93
2023-03-11T19:11:27.064Z,3.67
2023-03-11T19:13:55.119Z,2.80
2023-03-11T19:16:24.748Z,2.47
2023-03-11T19:18:55.165Z,2.53
2023-03-11T19:21:23.740Z,2.13
2023-03-11T19:23:54.988Z,2.07
2023-03-11T19:26:33.845Z,2.03
2023-03-11T19:29:05.324Z,2.17
2023-03-11T19:31:32.964Z,2.73
2023-03-11T19:34:02.025Z,2.73
2023-03-11T19:36:30.131Z,2.40
2023-03-11T19:38:57.776Z,3.40
2023-03-11T19:41:25.378Z,2.83
2023-03-11T19:43:53.229Z,2.37
2023-03-11T19:46:25.525Z,2.57
2023-03-11T19:48:56.615Z,2.33
2023-03-11T19:51:30.478Z,1.63
2023-03-11T19:54:00.745Z,1.33
2023-03-11T19:56:28.628Z,1.80
2023-03-11T19:58:57.669Z,2.37
2023-03-11T20:01:28.215Z,2.03
2023-03-11T20:03:55.940Z,2.17
2023-03-11T20:06:24.945Z,2.13
2023-03-11T20:08:52.670Z,1.90
2023-03-11T20:11:20.373Z,2.30
2023-03-11T20:13:48.655Z,1.20
2023-03-11T20:16:19.074Z,1.50
2023-03-11T20:18:50.197Z,1.63
2023-03-11T20:21:18.759Z,0.90
2023-03-11T20:23:48.990Z,1.13
2023-03-11T20:26:18.378Z,1.60
2023-03-11T20:28:46.024Z,1.67
2023-03-11T20:31:16.947Z,3.17
2023-03-11T20:33:45.021Z,2.60
2023-03-11T20:36:14.788Z,1.90
2023-03-11T20:38:42.772Z,1.63
2023-03-11T20:41:12.269Z,2.33
2023-03-11T20:43:41.037Z,2.10
2023-03-11T20:46:09.964Z,2.10
2023-03-11T20:48:39.252Z,1.10
2023-03-11T20:51:10.384Z,2.77
2023-03-11T20:53:38.660Z,1.80
2023-03-11T20:56:09.088Z,1.13
2023-03-11T20:58:38.484Z,1.20
2023-03-11T21:01:12.682Z,1.90
2023-03-11T21:03:40.501Z,2.27
2023-03-11T21:06:15.530Z,3.43
2023-03-11T21:08:43.494Z,1.53
2023-03-11T21:11:11.166Z,1.70
2023-03-11T21:13:40.380Z,1.57
2023-03-11T21:16:09.319Z,1.70
2023-03-11T21:18:37.218Z,2.20
2023-03-11T21:21:08.378Z,3.93
2023-03-11T21:23:36.152Z,1.53
2023-03-11T21:26:06.393Z,1.33
2023-03-11T21:28:35.108Z,1.47
2023-03-11T21:31:06.316Z,1.27
2023-03-11T21:33:34.175Z,1.40
2023-03-11T21:36:02.397Z,1.20
2023-03-11T21:38:30.631Z,1.30
2023-03-11T21:41:08.065Z,1.30
2023-03-11T21:43:36.385Z,1.17
2023-03-11T21:46:06.598Z,1.43
2023-03-11T21:48:35.102Z,1.47
2023-03-11T21:51:03.486Z,1.20
2023-03-11T21:53:31.780Z,1.80
2023-03-11T21:56:00.113Z,2.13
2023-03-11T21:58:28.078Z,1.47
2023-03-11T22:00:55.791Z,1.40
2023-03-11T22:03:25.041Z,2.77
2023-03-11T22:05:57.502Z,1.50
2023-03-11T22:08:25.713Z,2.03
2023-03-11T22:10:53.352Z,1.50
2023-03-11T22:13:20.993Z,1.87
2023-03-11T22:15:49.111Z,2.70
2023-03-11T22:18:16.821Z,4.83
2023-03-11T22:20:46.123Z,2.33
2023-03-11T22:23:14.030Z,3.10
2023-03-11T22:25:44.021Z,2.97
2023-03-11T22:28:13.081Z,2.37
2023-03-11T22:30:40.853Z,2.73
2023-03-11T22:33:08.727Z,2.70
2023-03-11T22:35:36.898Z,2.23
2023-03-11T22:38:06.274Z,3.00
2023-03-11T22:40:35.101Z,3.03
2023-03-11T22:43:03.056Z,3.00
2023-03-11T22:45:30.750Z,1.50
2023-03-11T22:47:58.499Z,2.70
2023-03-11T22:50:26.253Z,2.40
2023-03-11T22:52:53.964Z,1.20
2023-03-11T22:55:23.230Z,1.60
2023-03-11T22:57:50.985Z,4.07
2023-03-11T23:00:21.401Z,1.43
2023-03-11T23:02:53.358Z,2.20
2023-03-11T23:05:24.918Z,4.23
2023-03-11T23:07:52.732Z,4.67
2023-03-11T23:10:21.564Z,3.50
2023-03-11T23:12:54.051Z,1.90
2023-03-11T23:15:21.914Z,1.70
2023-03-11T23:17:49.627Z,2.40
2023-03-11T23:20:18.291Z,1.63
2023-03-11T23:22:46.226Z,2.40
2023-03-11T23:25:16.696Z,3.70
2023-03-11T23:27:46.177Z,3.83
2023-03-11T23:30:17.317Z,2.67
2023-03-11T23:32:45.722Z,2.47
2023-03-11T23:35:13.906Z,4.63
2023-03-11T23:37:41.729Z,2.13
2023-03-11T23:40:12.201Z,3.03
2023-03-11T23:42:39.909Z,2.47
2023-03-11T23:45:09.154Z,2.40
2023-03-11T23:47:38.335Z,2.47
2023-03-11T23:50:07.419Z,2.63
2023-03-11T23:52:35.542Z,2.40
2023-03-11T23:55:03.541Z,3.00
2023-03-11T23:57:31.254Z,2.40
2023-03-11T23:59:59.785Z,1.73
